sensor_id;sensor_type;location;lat;lon;timestamp;temperature;humidity
23873;DHT22;42884;50.718;4.630;2023-03-14T00:02:20;11.30;99.90
23873;DHT22;42884;50.718;4.630;2023-03-14T00:04:45;11.40;99.90
23873;DHT22;42884;50.718;4.630;2023-03-14T00:07:11;11.40;99.90
23873;DHT22;42884;50.718;4.630;2023-03-14T00:09:37;11.30;99.90
23873;DHT22;42884;50.718;4.630;2023-03-14T00:12:03;11.30;99.90
23873;DHT22;42884;50.718;4.630;2023-03-14T00:14:29;11.30;99.90
23873;DHT22;42884;50.718;4.630;2023-03-14T00:16:55;11.40;99.90
23873;DHT22;42884;50.718;4.630;2023-03-14T00:19:20;11.40;99.90
23873;DHT22;42884;50.718;4.630;2023-03-14T00:21:46;11.40;99.90
23873;DHT22;42884;50.718;4.630;2023-03-14T00:24:12;11.50;99.90
23873;DHT22;42884;50.718;4.630;2023-03-14T00:26:38;11.60;99.90
23873;DHT22;42884;50.718;4.630;2023-03-14T00:29:03;11.60;99.90
23873;DHT22;42884;50.718;4.630;2023-03-14T00:31:29;11.60;99.90
23873;DHT22;42884;50.718;4.630;2023-03-14T00:33:54;11.60;99.90
23873;DHT22;42884;50.718;4.630;2023-03-14T00:36:20;11.50;99.90
23873;DHT22;42884;50.718;4.630;2023-03-14T00:38:47;11.50;99.90
23873;DHT22;42884;50.718;4.630;2023-03-14T00:41:14;11.50;99.90
23873;DHT22;42884;50.718;4.630;2023-03-14T00:43:40;11.40;99.90
23873;DHT22;42884;50.718;4.630;2023-03-14T00:46:06;11.40;99.90
23873;DHT22;42884;50.718;4.630;2023-03-14T00:48:32;11.30;99.90
23873;DHT22;42884;50.718;4.630;2023-03-14T00:50:57;11.30;99.90
23873;DHT22;42884;50.718;4.630;2023-03-14T00:53:23;11.20;99.90
23873;DHT22;42884;50.718;4.630;2023-03-14T00:55:49;11.20;99.90
23873;DHT22;42884;50.718;4.630;2023-03-14T00:58:16;11.20;99.90
23873;DHT22;42884;50.718;4.630;2023-03-14T01:00:42;11.30;99.90
23873;DHT22;42884;50.718;4.630;2023-03-14T01:03:07;11.20;99.90
23873;DHT22;42884;50.718;4.630;2023-03-14T01:05:33;11.30;99.90
23873;DHT22;42884;50.718;4.630;2023-03-14T01:07:59;11.40;99.90
23873;DHT22;42884;50.718;4.630;2023-03-14T01:10:25;11.40;99.90
23873;DHT22;42884;50.718;4.630;2023-03-14T01:12:51;11.30;99.90
23873;DHT22;42884;50.718;4.630;2023-03-14T01:15:16;11.30;99.90
23873;DHT22;42884;50.718;4.630;2023-03-14T01:17:42;11.30;99.90
23873;DHT22;42884;50.718;4.630;2023-03-14T01:20:09;11.30;99.90
23873;DHT22;42884;50.718;4.630;2023-03-14T01:22:35;11.30;99.90
23873;DHT22;42884;50.718;4.630;2023-03-14T01:25:01;11.30;99.90
23873;DHT22;42884;50.718;4.630;2023-03-14T01:27:27;11.30;99.90
23873;DHT22;42884;50.718;4.630;2023-03-14T01:29:53;11.30;99.90
23873;DHT22;42884;50.718;4.630;2023-03-14T01:32:18;11.40;99.90
23873;DHT22;42884;50.718;4.630;2023-03-14T01:34:44;11.30;99.90
23873;DHT22;42884;50.718;4.630;2023-03-14T01:37:09;11.00;99.90
23873;DHT22;42884;50.718;4.630;2023-03-14T01:39:37;11.20;99.90
23873;DHT22;42884;50.718;4.630;2023-03-14T01:42:03;11.30;99.90
23873;DHT22;42884;50.718;4.630;2023-03-14T01:44:45;11.20;99.90
23873;DHT22;42884;50.718;4.630;2023-03-14T01:47:11;10.90;99.90
23873;DHT22;42884;50.718;4.630;2023-03-14T01:49:36;10.80;99.90
23873;DHT22;42884;50.718;4.630;2023-03-14T01:52:06;10.70;99.90
23873;DHT22;42884;50.718;4.630;2023-03-14T01:54:37;10.70;99.90
23873;DHT22;42884;50.718;4.630;2023-03-14T01:57:08;10.60;99.90
23873;DHT22;42884;50.718;4.630;2023-03-14T01:59:36;10.50;99.90
23873;DHT22;42884;50.718;4.630;2023-03-14T02:02:04;10.50;99.90
23873;DHT22;42884;50.718;4.630;2023-03-14T02:04:33;10.50;99.90
23873;DHT22;42884;50.718;4.630;2023-03-14T02:07:09;10.50;99.90
23873;DHT22;42884;50.718;4.630;2023-03-14T02:09:35;10.50;99.90
23873;DHT22;42884;50.718;4.630;2023-03-14T02:12:01;10.50;99.90
23873;DHT22;42884;50.718;4.630;2023-03-14T02:14:33;10.70;99.90
23873;DHT22;42884;50.718;4.630;2023-03-14T02:16:59;10.70;99.90
23873;DHT22;42884;50.718;4.630;2023-03-14T02:19:32;10.80;99.90
23873;DHT22;42884;50.718;4.630;2023-03-14T02:22:02;10.90;99.90
23873;DHT22;42884;50.718;4.630;2023-03-14T02:24:34;11.00;99.90
23873;DHT22;42884;50.718;4.630;2023-03-14T02:29:27;11.20;99.90
23873;DHT22;42884;50.718;4.630;2023-03-14T02:31:53;11.30;99.90
23873;DHT22;42884;50.718;4.630;2023-03-14T02:34:19;11.40;99.90
23873;DHT22;42884;50.718;4.630;2023-03-14T02:36:44;11.30;99.90
23873;DHT22;42884;50.718;4.630;2023-03-14T02:39:14;11.30;99.90
23873;DHT22;42884;50.718;4.630;2023-03-14T02:41:41;11.40;99.90
23873;DHT22;42884;50.718;4.630;2023-03-14T02:44:07;11.20;99.90
23873;DHT22;42884;50.718;4.630;2023-03-14T02:46:33;11.20;99.90
23873;DHT22;42884;50.718;4.630;2023-03-14T02:49:02;11.10;99.90
23873;DHT22;42884;50.718;4.630;2023-03-14T02:51:31;10.90;99.90
23873;DHT22;42884;50.718;4.630;2023-03-14T02:53:57;10.70;99.90
23873;DHT22;42884;50.718;4.630;2023-03-14T02:56:23;10.80;99.90
23873;DHT22;42884;50.718;4.630;2023-03-14T02:58:48;10.80;99.90
23873;DHT22;42884;50.718;4.630;2023-03-14T03:01:14;10.80;99.90
23873;DHT22;42884;50.718;4.630;2023-03-14T03:03:40;10.60;99.90
23873;DHT22;42884;50.718;4.630;2023-03-14T03:06:05;10.70;99.90
23873;DHT22;42884;50.718;4.630;2023-03-14T03:08:31;10.70;99.90
23873;DHT22;42884;50.718;4.630;2023-03-14T03:10:57;10.60;99.90
23873;DHT22;42884;50.718;4.630;2023-03-14T03:13:23;10.50;99.90
23873;DHT22;42884;50.718;4.630;2023-03-14T03:15:48;10.50;99.90
23873;DHT22;42884;50.718;4.630;2023-03-14T03:18:14;10.50;99.90
23873;DHT22;42884;50.718;4.630;2023-03-14T03:20:40;10.60;99.90
23873;DHT22;42884;50.718;4.630;2023-03-14T03:23:05;10.50;99.90
23873;DHT22;42884;50.718;4.630;2023-03-14T03:25:31;10.60;99.90
23873;DHT22;42884;50.718;4.630;2023-03-14T03:27:56;10.50;99.90
23873;DHT22;42884;50.718;4.630;2023-03-14T03:30:22;10.70;99.90
23873;DHT22;42884;50.718;4.630;2023-03-14T03:32:48;10.50;99.90
23873;DHT22;42884;50.718;4.630;2023-03-14T03:35:14;10.50;99.90
23873;DHT22;42884;50.718;4.630;2023-03-14T03:37:39;10.60;99.90
23873;DHT22;42884;50.718;4.630;2023-03-14T03:40:05;10.60;99.90
23873;DHT22;42884;50.718;4.630;2023-03-14T03:42:31;10.50;99.90
23873;DHT22;42884;50.718;4.630;2023-03-14T03:44:57;10.50;99.90
23873;DHT22;42884;50.718;4.630;2023-03-14T03:47:23;10.60;99.90
23873;DHT22;42884;50.718;4.630;2023-03-14T03:49:48;10.60;99.90
23873;DHT22;42884;50.718;4.630;2023-03-14T03:52:14;10.70;99.90
23873;DHT22;42884;50.718;4.630;2023-03-14T03:54:39;10.70;99.90
23873;DHT22;42884;50.718;4.630;2023-03-14T03:57:05;10.60;99.90
23873;DHT22;42884;50.718;4.630;2023-03-14T03:59:31;10.70;99.90
23873;DHT22;42884;50.718;4.630;2023-03-14T04:01:56;10.60;99.90
23873;DHT22;42884;50.718;4.630;2023-03-14T04:04:22;10.60;99.90
23873;DHT22;42884;50.718;4.630;2023-03-14T04:06:47;10.70;99.90
23873;DHT22;42884;50.718;4.630;2023-03-14T04:09:13;10.60;99.90
23873;DHT22;42884;50.718;4.630;2023-03-14T04:11:39;10.60;99.90
23873;DHT22;42884;50.718;4.630;2023-03-14T04:14:05;10.60;99.90
23873;DHT22;42884;50.718;4.630;2023-03-14T04:16:30;10.50;99.90
23873;DHT22;42884;50.718;4.630;2023-03-14T04:18:59;10.50;99.90
23873;DHT22;42884;50.718;4.630;2023-03-14T04:21:25;10.40;99.90
23873;DHT22;42884;50.718;4.630;2023-03-14T04:23:50;10.50;99.90
23873;DHT22;42884;50.718;4.630;2023-03-14T04:26:16;10.50;99.90
23873;DHT22;42884;50.718;4.630;2023-03-14T04:28:42;10.50;99.90
23873;DHT22;42884;50.718;4.630;2023-03-14T04:31:12;10.60;99.90
23873;DHT22;42884;50.718;4.630;2023-03-14T04:33:38;10.60;99.90
23873;DHT22;42884;50.718;4.630;2023-03-14T04:36:04;10.70;99.90
23873;DHT22;42884;50.718;4.630;2023-03-14T04:38:30;10.70;99.90
23873;DHT22;42884;50.718;4.630;2023-03-14T04:40:56;10.70;99.90
23873;DHT22;42884;50.718;4.630;2023-03-14T04:43:21;10.60;99.90
23873;DHT22;42884;50.718;4.630;2023-03-14T04:45:47;10.60;99.90
23873;DHT22;42884;50.718;4.630;2023-03-14T04:48:13;10.60;99.90
23873;DHT22;42884;50.718;4.630;2023-03-14T04:50:38;10.50;99.90
23873;DHT22;42884;50.718;4.630;2023-03-14T04:53:04;10.50;99.90
23873;DHT22;42884;50.718;4.630;2023-03-14T04:55:30;10.50;99.90
23873;DHT22;42884;50.718;4.630;2023-03-14T04:57:57;10.50;99.90
23873;DHT22;42884;50.718;4.630;2023-03-14T05:00:23;10.60;99.90
23873;DHT22;42884;50.718;4.630;2023-03-14T05:02:49;10.60;99.90
23873;DHT22;42884;50.718;4.630;2023-03-14T05:05:14;10.60;99.90
23873;DHT22;42884;50.718;4.630;2023-03-14T05:07:40;10.60;99.90
23873;DHT22;42884;50.718;4.630;2023-03-14T05:10:06;10.70;99.90
23873;DHT22;42884;50.718;4.630;2023-03-14T05:12:31;10.70;99.90
23873;DHT22;42884;50.718;4.630;2023-03-14T05:14:57;10.70;99.90
23873;DHT22;42884;50.718;4.630;2023-03-14T05:17:22;10.80;99.90
23873;DHT22;42884;50.718;4.630;2023-03-14T05:19:48;10.90;99.90
23873;DHT22;42884;50.718;4.630;2023-03-14T05:22:14;10.90;99.90
23873;DHT22;42884;50.718;4.630;2023-03-14T05:24:39;10.90;99.90
23873;DHT22;42884;50.718;4.630;2023-03-14T05:27:05;10.80;99.90
23873;DHT22;42884;50.718;4.630;2023-03-14T05:29:31;10.90;99.90
23873;DHT22;42884;50.718;4.630;2023-03-14T05:31:57;10.90;99.90
23873;DHT22;42884;50.718;4.630;2023-03-14T05:34:22;10.90;99.90
23873;DHT22;42884;50.718;4.630;2023-03-14T05:36:48;10.80;99.90
23873;DHT22;42884;50.718;4.630;2023-03-14T05:39:13;10.80;99.90
23873;DHT22;42884;50.718;4.630;2023-03-14T05:41:39;10.80;99.90
23873;DHT22;42884;50.718;4.630;2023-03-14T05:44:04;10.80;99.90
23873;DHT22;42884;50.718;4.630;2023-03-14T05:46:30;10.80;99.90
23873;DHT22;42884;50.718;4.630;2023-03-14T05:48:56;10.70;99.90
23873;DHT22;42884;50.718;4.630;2023-03-14T05:51:22;10.80;99.90
23873;DHT22;42884;50.718;4.630;2023-03-14T05:53:48;10.80;99.90
23873;DHT22;42884;50.718;4.630;2023-03-14T05:56:13;10.80;99.90
23873;DHT22;42884;50.718;4.630;2023-03-14T05:58:39;10.90;99.90
23873;DHT22;42884;50.718;4.630;2023-03-14T06:01:05;10.90;99.90
23873;DHT22;42884;50.718;4.630;2023-03-14T06:03:31;10.90;99.90
23873;DHT22;42884;50.718;4.630;2023-03-14T06:05:57;11.00;99.90
23873;DHT22;42884;50.718;4.630;2023-03-14T06:08:23;11.10;99.90
23873;DHT22;42884;50.718;4.630;2023-03-14T06:10:49;11.00;99.90
23873;DHT22;42884;50.718;4.630;2023-03-14T06:13:14;11.00;99.90
23873;DHT22;42884;50.718;4.630;2023-03-14T06:15:40;10.90;99.90
23873;DHT22;42884;50.718;4.630;2023-03-14T06:18:06;11.00;99.90
23873;DHT22;42884;50.718;4.630;2023-03-14T06:20:32;11.00;99.90
23873;DHT22;42884;50.718;4.630;2023-03-14T06:22:58;11.00;99.90
23873;DHT22;42884;50.718;4.630;2023-03-14T06:25:24;11.00;99.90
23873;DHT22;42884;50.718;4.630;2023-03-14T06:27:49;11.00;99.90
23873;DHT22;42884;50.718;4.630;2023-03-14T06:30:15;11.10;99.90
23873;DHT22;42884;50.718;4.630;2023-03-14T06:32:41;11.10;99.90
23873;DHT22;42884;50.718;4.630;2023-03-14T06:35:07;11.20;99.90
23873;DHT22;42884;50.718;4.630;2023-03-14T06:37:33;11.10;99.90
23873;DHT22;42884;50.718;4.630;2023-03-14T06:39:59;11.10;99.90
23873;DHT22;42884;50.718;4.630;2023-03-14T06:42:25;11.20;99.90
23873;DHT22;42884;50.718;4.630;2023-03-14T06:44:50;11.20;99.90
23873;DHT22;42884;50.718;4.630;2023-03-14T06:47:16;11.10;99.90
23873;DHT22;42884;50.718;4.630;2023-03-14T06:49:42;11.20;99.90
23873;DHT22;42884;50.718;4.630;2023-03-14T06:52:07;11.20;99.90
23873;DHT22;42884;50.718;4.630;2023-03-14T06:54:33;11.10;99.90
23873;DHT22;42884;50.718;4.630;2023-03-14T06:56:58;11.00;99.90
23873;DHT22;42884;50.718;4.630;2023-03-14T06:59:24;11.10;99.90
23873;DHT22;42884;50.718;4.630;2023-03-14T07:01:50;11.30;99.90
23873;DHT22;42884;50.718;4.630;2023-03-14T07:04:16;11.30;99.90
23873;DHT22;42884;50.718;4.630;2023-03-14T07:06:41;11.20;99.90
23873;DHT22;42884;50.718;4.630;2023-03-14T07:09:10;11.30;99.90
23873;DHT22;42884;50.718;4.630;2023-03-14T07:11:36;11.20;99.90
23873;DHT22;42884;50.718;4.630;2023-03-14T07:14:02;11.10;99.90
23873;DHT22;42884;50.718;4.630;2023-03-14T07:16:27;11.10;99.90
23873;DHT22;42884;50.718;4.630;2023-03-14T07:18:56;11.10;99.90
23873;DHT22;42884;50.718;4.630;2023-03-14T07:21:22;10.90;99.90
23873;DHT22;42884;50.718;4.630;2023-03-14T07:23:48;10.50;99.90
23873;DHT22;42884;50.718;4.630;2023-03-14T07:26:13;10.40;99.90
23873;DHT22;42884;50.718;4.630;2023-03-14T07:28:39;10.10;99.90
23873;DHT22;42884;50.718;4.630;2023-03-14T07:31:04;9.80;99.90
23873;DHT22;42884;50.718;4.630;2023-03-14T07:33:30;9.50;99.90
23873;DHT22;42884;50.718;4.630;2023-03-14T07:35:56;9.30;99.90
23873;DHT22;42884;50.718;4.630;2023-03-14T07:38:21;9.10;99.90
23873;DHT22;42884;50.718;4.630;2023-03-14T07:40:47;9.10;99.90
23873;DHT22;42884;50.718;4.630;2023-03-14T07:43:12;9.00;99.90
23873;DHT22;42884;50.718;4.630;2023-03-14T07:45:38;8.90;99.90
23873;DHT22;42884;50.718;4.630;2023-03-14T07:48:04;8.90;99.90
23873;DHT22;42884;50.718;4.630;2023-03-14T07:50:29;8.80;99.90
23873;DHT22;42884;50.718;4.630;2023-03-14T07:52:55;8.80;99.90
23873;DHT22;42884;50.718;4.630;2023-03-14T07:55:20;8.80;99.90
23873;DHT22;42884;50.718;4.630;2023-03-14T07:57:46;8.90;99.90
23873;DHT22;42884;50.718;4.630;2023-03-14T08:00:12;8.90;99.90
23873;DHT22;42884;50.718;4.630;2023-03-14T08:02:40;9.00;99.90
23873;DHT22;42884;50.718;4.630;2023-03-14T08:05:07;8.90;99.90
23873;DHT22;42884;50.718;4.630;2023-03-14T08:07:33;9.00;99.90
23873;DHT22;42884;50.718;4.630;2023-03-14T08:09:59;9.10;99.90
23873;DHT22;42884;50.718;4.630;2023-03-14T08:12:24;9.00;99.90
23873;DHT22;42884;50.718;4.630;2023-03-14T08:14:50;9.10;99.90
23873;DHT22;42884;50.718;4.630;2023-03-14T08:17:15;9.00;99.90
23873;DHT22;42884;50.718;4.630;2023-03-14T08:19:41;9.00;99.90
23873;DHT22;42884;50.718;4.630;2023-03-14T08:22:07;8.90;99.90
23873;DHT22;42884;50.718;4.630;2023-03-14T08:24:33;9.00;99.90
23873;DHT22;42884;50.718;4.630;2023-03-14T08:26:58;9.00;99.90
23873;DHT22;42884;50.718;4.630;2023-03-14T08:29:24;9.10;99.90
23873;DHT22;42884;50.718;4.630;2023-03-14T08:31:50;9.10;99.90
23873;DHT22;42884;50.718;4.630;2023-03-14T08:34:15;9.00;99.90
23873;DHT22;42884;50.718;4.630;2023-03-14T08:36:41;9.00;99.90
23873;DHT22;42884;50.718;4.630;2023-03-14T08:39:07;9.10;99.90
23873;DHT22;42884;50.718;4.630;2023-03-14T08:41:33;9.00;99.90
23873;DHT22;42884;50.718;4.630;2023-03-14T08:43:58;9.00;99.90
23873;DHT22;42884;50.718;4.630;2023-03-14T08:46:24;8.90;99.90
23873;DHT22;42884;50.718;4.630;2023-03-14T08:48:50;8.90;99.90
23873;DHT22;42884;50.718;4.630;2023-03-14T08:51:15;8.80;99.90
23873;DHT22;42884;50.718;4.630;2023-03-14T08:53:42;8.80;99.90
23873;DHT22;42884;50.718;4.630;2023-03-14T08:56:08;8.60;99.90
23873;DHT22;42884;50.718;4.630;2023-03-14T08:58:35;8.60;99.90
23873;DHT22;42884;50.718;4.630;2023-03-14T09:01:04;8.80;99.90
23873;DHT22;42884;50.718;4.630;2023-03-14T09:03:29;8.70;99.90
23873;DHT22;42884;50.718;4.630;2023-03-14T09:05:55;8.60;99.90
23873;DHT22;42884;50.718;4.630;2023-03-14T09:08:21;8.50;99.90
23873;DHT22;42884;50.718;4.630;2023-03-14T09:10:46;8.50;99.90
23873;DHT22;42884;50.718;4.630;2023-03-14T09:13:12;8.50;99.90
23873;DHT22;42884;50.718;4.630;2023-03-14T09:15:37;8.30;99.90
23873;DHT22;42884;50.718;4.630;2023-03-14T09:18:04;8.20;99.90
23873;DHT22;42884;50.718;4.630;2023-03-14T09:20:29;8.20;99.90
23873;DHT22;42884;50.718;4.630;2023-03-14T09:22:55;8.20;99.90
23873;DHT22;42884;50.718;4.630;2023-03-14T09:25:20;8.10;99.90
23873;DHT22;42884;50.718;4.630;2023-03-14T09:27:46;8.10;99.90
23873;DHT22;42884;50.718;4.630;2023-03-14T09:30:12;8.00;99.90
23873;DHT22;42884;50.718;4.630;2023-03-14T09:32:37;8.00;99.90
23873;DHT22;42884;50.718;4.630;2023-03-14T09:35:03;7.90;99.90
23873;DHT22;42884;50.718;4.630;2023-03-14T09:37:29;7.90;99.90
23873;DHT22;42884;50.718;4.630;2023-03-14T09:39:54;8.00;99.90
23873;DHT22;42884;50.718;4.630;2023-03-14T09:42:21;8.10;99.90
23873;DHT22;42884;50.718;4.630;2023-03-14T09:44:59;8.00;99.90
23873;DHT22;42884;50.718;4.630;2023-03-14T09:47:25;8.00;99.90
23873;DHT22;42884;50.718;4.630;2023-03-14T09:49:52;8.10;99.90
23873;DHT22;42884;50.718;4.630;2023-03-14T09:52:22;8.10;99.90
23873;DHT22;42884;50.718;4.630;2023-03-14T09:55:11;8.30;99.90
23873;DHT22;42884;50.718;4.630;2023-03-14T09:57:35;8.20;99.90
23873;DHT22;42884;50.718;4.630;2023-03-14T10:00:03;8.20;99.90
23873;DHT22;42884;50.718;4.630;2023-03-14T10:02:39;8.00;99.90
23873;DHT22;42884;50.718;4.630;2023-03-14T10:05:07;8.00;99.90
23873;DHT22;42884;50.718;4.630;2023-03-14T10:07:33;8.10;99.90
23873;DHT22;42884;50.718;4.630;2023-03-14T10:09:59;8.10;99.90
23873;DHT22;42884;50.718;4.630;2023-03-14T10:12:31;8.20;99.90
23873;DHT22;42884;50.718;4.630;2023-03-14T10:14:57;8.30;99.90
23873;DHT22;42884;50.718;4.630;2023-03-14T10:17:28;8.40;99.90
23873;DHT22;42884;50.718;4.630;2023-03-14T10:19:56;8.50;99.90
23873;DHT22;42884;50.718;4.630;2023-03-14T10:22:29;8.70;99.90
23873;DHT22;42884;50.718;4.630;2023-03-14T10:24:56;8.70;99.90
23873;DHT22;42884;50.718;4.630;2023-03-14T10:27:28;8.70;99.90
23873;DHT22;42884;50.718;4.630;2023-03-14T10:29:58;8.70;99.90
23873;DHT22;42884;50.718;4.630;2023-03-14T10:32:29;8.60;99.90
23873;DHT22;42884;50.718;4.630;2023-03-14T10:35:30;8.50;99.90
23873;DHT22;42884;50.718;4.630;2023-03-14T10:40:14;8.50;99.90
23873;DHT22;42884;50.718;4.630;2023-03-14T10:42:41;8.40;99.90
23873;DHT22;42884;50.718;4.630;2023-03-14T10:47:54;8.70;99.90
23873;DHT22;42884;50.718;4.630;2023-03-14T10:50:27;8.80;99.90
23873;DHT22;42884;50.718;4.630;2023-03-14T10:52:53;8.90;99.90
23873;DHT22;42884;50.718;4.630;2023-03-14T10:55:19;8.80;99.90
23873;DHT22;42884;50.718;4.630;2023-03-14T10:57:44;8.50;99.90
23873;DHT22;42884;50.718;4.630;2023-03-14T11:00:28;8.40;99.90
23873;DHT22;42884;50.718;4.630;2023-03-14T11:08:27;8.50;99.90
23873;DHT22;42884;50.718;4.630;2023-03-14T11:10:57;8.30;99.90
23873;DHT22;42884;50.718;4.630;2023-03-14T11:28:55;8.40;99.90
23873;DHT22;42884;50.718;4.630;2023-03-14T11:33:54;8.40;99.90
23873;DHT22;42884;50.718;4.630;2023-03-14T11:36:24;8.40;99.90
23873;DHT22;42884;50.718;4.630;2023-03-14T11:38:55;8.30;99.90
23873;DHT22;42884;50.718;4.630;2023-03-14T11:41:38;8.40;99.90
23873;DHT22;42884;50.718;4.630;2023-03-14T11:44:10;8.50;99.90
23873;DHT22;42884;50.718;4.630;2023-03-14T11:46:39;8.50;99.90
23873;DHT22;42884;50.718;4.630;2023-03-14T11:51:52;8.40;99.90
23873;DHT22;42884;50.718;4.630;2023-03-14T11:54:27;8.20;99.90
23873;DHT22;42884;50.718;4.630;2023-03-14T11:59:32;8.10;99.90
23873;DHT22;42884;50.718;4.630;2023-03-14T12:02:05;7.90;99.90
23873;DHT22;42884;50.718;4.630;2023-03-14T12:04:43;7.70;99.90
23873;DHT22;42884;50.718;4.630;2023-03-14T12:07:15;7.70;99.90
23873;DHT22;42884;50.718;4.630;2023-03-14T12:09:43;7.60;99.90
23873;DHT22;42884;50.718;4.630;2023-03-14T12:12:10;7.60;99.90
23873;DHT22;42884;50.718;4.630;2023-03-14T12:14:38;7.50;99.90
23873;DHT22;42884;50.718;4.630;2023-03-14T12:19:38;7.70;99.90
23873;DHT22;42884;50.718;4.630;2023-03-14T12:24:36;7.60;99.90
23873;DHT22;42884;50.718;4.630;2023-03-14T12:27:03;7.50;99.90
23873;DHT22;42884;50.718;4.630;2023-03-14T12:29:29;7.60;99.90
23873;DHT22;42884;50.718;4.630;2023-03-14T12:34:48;7.30;99.90
23873;DHT22;42884;50.718;4.630;2023-03-14T12:37:15;7.30;99.90
23873;DHT22;42884;50.718;4.630;2023-03-14T12:39:47;7.20;99.90
23873;DHT22;42884;50.718;4.630;2023-03-14T12:42:34;7.30;99.90
23873;DHT22;42884;50.718;4.630;2023-03-14T12:45:43;7.40;99.90
23873;DHT22;42884;50.718;4.630;2023-03-14T12:47:51;7.10;99.90
23873;DHT22;42884;50.718;4.630;2023-03-14T12:50:21;7.20;99.90
23873;DHT22;42884;50.718;4.630;2023-03-14T12:52:53;7.10;99.90
23873;DHT22;42884;50.718;4.630;2023-03-14T12:58:44;7.20;99.90
23873;DHT22;42884;50.718;4.630;2023-03-14T13:01:15;7.20;99.90
23873;DHT22;42884;50.718;4.630;2023-03-14T13:03:45;7.00;99.90
23873;DHT22;42884;50.718;4.630;2023-03-14T13:06:12;7.00;99.90
23873;DHT22;42884;50.718;4.630;2023-03-14T13:08:41;7.10;99.90
23873;DHT22;42884;50.718;4.630;2023-03-14T13:11:09;7.10;99.90
23873;DHT22;42884;50.718;4.630;2023-03-14T13:13:35;7.10;99.90
23873;DHT22;42884;50.718;4.630;2023-03-14T13:16:02;7.30;99.90
23873;DHT22;42884;50.718;4.630;2023-03-14T13:18:39;7.10;99.90
23873;DHT22;42884;50.718;4.630;2023-03-14T13:23:37;7.10;99.90
23873;DHT22;42884;50.718;4.630;2023-03-14T13:26:02;7.00;99.90
23873;DHT22;42884;50.718;4.630;2023-03-14T13:28:29;6.90;99.90
23873;DHT22;42884;50.718;4.630;2023-03-14T13:30:57;7.00;99.90
23873;DHT22;42884;50.718;4.630;2023-03-14T13:33:23;7.00;99.90
23873;DHT22;42884;50.718;4.630;2023-03-14T13:38:16;7.10;99.90
23873;DHT22;42884;50.718;4.630;2023-03-14T13:40:43;7.00;99.90
23873;DHT22;42884;50.718;4.630;2023-03-14T13:43:16;7.10;99.90
23873;DHT22;42884;50.718;4.630;2023-03-14T13:45:43;7.10;99.90
23873;DHT22;42884;50.718;4.630;2023-03-14T13:48:10;7.10;99.90
23873;DHT22;42884;50.718;4.630;2023-03-14T13:50:36;7.20;99.90
23873;DHT22;42884;50.718;4.630;2023-03-14T13:53:02;7.20;99.90
23873;DHT22;42884;50.718;4.630;2023-03-14T13:55:27;7.30;99.90
23873;DHT22;42884;50.718;4.630;2023-03-14T13:57:54;7.40;99.90
23873;DHT22;42884;50.718;4.630;2023-03-14T14:00:22;7.30;99.90
23873;DHT22;42884;50.718;4.630;2023-03-14T14:02:49;7.10;99.90
23873;DHT22;42884;50.718;4.630;2023-03-14T14:05:14;7.00;99.90
23873;DHT22;42884;50.718;4.630;2023-03-14T14:07:40;7.00;99.90
23873;DHT22;42884;50.718;4.630;2023-03-14T14:10:10;6.90;99.90
23873;DHT22;42884;50.718;4.630;2023-03-14T14:12:42;7.00;99.90
23873;DHT22;42884;50.718;4.630;2023-03-14T14:15:13;6.90;99.90
23873;DHT22;42884;50.718;4.630;2023-03-14T14:17:42;6.90;99.90
23873;DHT22;42884;50.718;4.630;2023-03-14T14:20:51;7.10;99.90
23873;DHT22;42884;50.718;4.630;2023-03-14T14:23:03;7.00;99.90
23873;DHT22;42884;50.718;4.630;2023-03-14T14:25:29;7.10;99.90
23873;DHT22;42884;50.718;4.630;2023-03-14T14:27:55;7.30;99.90
23873;DHT22;42884;50.718;4.630;2023-03-14T14:32:47;7.30;99.90
23873;DHT22;42884;50.718;4.630;2023-03-14T14:35:25;7.40;99.90
23873;DHT22;42884;50.718;4.630;2023-03-14T14:37:51;7.40;99.90
23873;DHT22;42884;50.718;4.630;2023-03-14T14:40:21;7.40;99.90
23873;DHT22;42884;50.718;4.630;2023-03-14T14:42:48;7.60;99.90
23873;DHT22;42884;50.718;4.630;2023-03-14T14:45:19;7.70;99.90
23873;DHT22;42884;50.718;4.630;2023-03-14T14:47:49;8.00;99.90
23873;DHT22;42884;50.718;4.630;2023-03-14T14:55:45;8.00;99.90
23873;DHT22;42884;50.718;4.630;2023-03-14T14:58:17;8.10;99.90
23873;DHT22;42884;50.718;4.630;2023-03-14T15:00:49;8.10;99.90
23873;DHT22;42884;50.718;4.630;2023-03-14T15:03:15;8.30;99.90
23873;DHT22;42884;50.718;4.630;2023-03-14T15:05:41;8.40;99.90
23873;DHT22;42884;50.718;4.630;2023-03-14T15:08:09;8.50;99.90
23873;DHT22;42884;50.718;4.630;2023-03-14T15:10:35;8.60;99.90
23873;DHT22;42884;50.718;4.630;2023-03-14T15:13:01;8.60;99.90
23873;DHT22;42884;50.718;4.630;2023-03-14T15:15:26;8.60;99.90
23873;DHT22;42884;50.718;4.630;2023-03-14T15:17:52;8.40;99.90
23873;DHT22;42884;50.718;4.630;2023-03-14T15:20:18;8.10;99.90
23873;DHT22;42884;50.718;4.630;2023-03-14T15:22:45;7.50;99.90
23873;DHT22;42884;50.718;4.630;2023-03-14T15:25:10;7.10;99.90
23873;DHT22;42884;50.718;4.630;2023-03-14T15:27:36;6.80;99.90
23873;DHT22;42884;50.718;4.630;2023-03-14T15:30:05;6.60;99.90
23873;DHT22;42884;50.718;4.630;2023-03-14T15:32:30;6.50;99.90
23873;DHT22;42884;50.718;4.630;2023-03-14T15:34:56;6.30;99.90
23873;DHT22;42884;50.718;4.630;2023-03-14T15:37:22;6.20;99.90
23873;DHT22;42884;50.718;4.630;2023-03-14T15:39:48;6.30;99.90
23873;DHT22;42884;50.718;4.630;2023-03-14T15:42:14;6.40;99.90
23873;DHT22;42884;50.718;4.630;2023-03-14T15:44:39;6.60;99.90
23873;DHT22;42884;50.718;4.630;2023-03-14T15:47:05;6.60;99.90
23873;DHT22;42884;50.718;4.630;2023-03-14T15:49:31;6.60;99.90
23873;DHT22;42884;50.718;4.630;2023-03-14T15:51:57;6.80;99.90
23873;DHT22;42884;50.718;4.630;2023-03-14T15:54:23;6.80;99.90
23873;DHT22;42884;50.718;4.630;2023-03-14T15:56:48;6.80;99.90
23873;DHT22;42884;50.718;4.630;2023-03-14T15:59:14;6.70;99.90
23873;DHT22;42884;50.718;4.630;2023-03-14T16:01:40;6.80;99.90
23873;DHT22;42884;50.718;4.630;2023-03-14T16:04:05;6.80;99.90
23873;DHT22;42884;50.718;4.630;2023-03-14T16:06:31;6.90;99.90
23873;DHT22;42884;50.718;4.630;2023-03-14T16:08:57;6.90;99.90
23873;DHT22;42884;50.718;4.630;2023-03-14T16:11:23;7.00;99.90
23873;DHT22;42884;50.718;4.630;2023-03-14T16:13:49;7.10;99.90
23873;DHT22;42884;50.718;4.630;2023-03-14T16:16:14;7.10;99.90
23873;DHT22;42884;50.718;4.630;2023-03-14T16:18:40;7.00;99.90
23873;DHT22;42884;50.718;4.630;2023-03-14T16:21:07;7.00;99.90
23873;DHT22;42884;50.718;4.630;2023-03-14T16:23:33;6.90;99.90
23873;DHT22;42884;50.718;4.630;2023-03-14T16:26:02;6.80;99.90
23873;DHT22;42884;50.718;4.630;2023-03-14T16:28:28;6.80;99.90
23873;DHT22;42884;50.718;4.630;2023-03-14T16:30:58;6.90;99.90
23873;DHT22;42884;50.718;4.630;2023-03-14T16:33:24;6.90;99.90
23873;DHT22;42884;50.718;4.630;2023-03-14T16:35:57;6.80;99.90
23873;DHT22;42884;50.718;4.630;2023-03-14T16:38:24;6.70;99.90
23873;DHT22;42884;50.718;4.630;2023-03-14T16:41:00;6.80;99.90